Mount Clare, West Virginia
Current Conditions -  °F | °C
As of 6:53 PM on Monday 20 Oct 2014 (Local Time) from KCKB Reporting Station
Overcast Overcast  
Wind Chill: 54°   Ceiling: 7500
Heat Index: 54°   Visibility: 10mi
Dew Point: 44°   Wind: 7mph
Humidity: 69%   Direction: 200°SSW
Pressure: 29.92"   Gusts: NA
Location:  39.17°N, 80.33°W
Report Text: KCKB 202253Z 20006KT 10SM FEW055 BKN075 OVC110 12/07 A2992 RMK AO2 SLP130 T01220067
Loading
Personal Weather Stations






























Interactive Weather Map
Tropical Storm Tracking
New forecast layout! Learn more

10-Day Weather Forecast

Advertisements
Track Severe Weather on mobile